createdAt,value
2018-06-10T12:06:39.417Z,36.00
2018-06-10T12:09:09.311Z,36.10
2018-06-10T12:11:39.002Z,36.10
2018-06-10T12:14:08.737Z,36.20
2018-06-10T12:16:38.386Z,36.20
2018-06-10T12:19:08.034Z,36.30
2018-06-10T12:21:37.633Z,36.40
2018-06-10T12:24:27.023Z,36.40
2018-06-10T12:26:56.597Z,36.40
2018-06-10T12:29:26.205Z,36.60
2018-06-10T12:31:55.879Z,36.80
2018-06-10T12:34:25.401Z,37.10
2018-06-10T12:36:54.966Z,37.30
2018-06-10T12:39:24.518Z,37.50
2018-06-10T12:41:54.166Z,37.70
2018-06-10T12:44:23.730Z,37.80
2018-06-10T12:46:53.485Z,38.00
2018-06-10T12:49:23.179Z,38.00
2018-06-10T12:51:52.872Z,38.10
2018-06-10T12:54:22.498Z,38.10
2018-06-10T12:56:52.154Z,38.10
2018-06-10T12:59:21.844Z,38.10
2018-06-10T13:01:51.485Z,38.10
2018-06-10T13:04:21.198Z,38.10
2018-06-10T13:06:50.907Z,38.10
2018-06-10T13:09:20.522Z,38.00
2018-06-10T13:11:50.201Z,38.00
2018-06-10T13:14:19.853Z,37.90
2018-06-10T13:16:49.564Z,37.80
2018-06-10T13:19:19.302Z,37.80
2018-06-10T13:21:48.927Z,37.70
2018-06-10T13:24:18.509Z,37.60
2018-06-10T13:26:48.155Z,37.50
2018-06-10T13:29:17.829Z,37.40
2018-06-10T13:31:47.492Z,37.30
2018-06-10T13:34:17.228Z,37.20
2018-06-10T13:36:46.878Z,37.20
2018-06-10T13:39:16.502Z,37.10
2018-06-10T13:41:46.279Z,37.00
2018-06-10T13:44:15.897Z,36.90
2018-06-10T13:49:14.480Z,36.70
2018-06-10T13:51:44.100Z,36.60
2018-06-10T13:54:13.726Z,36.50
2018-06-10T13:56:43.396Z,36.40
2018-06-10T13:59:12.944Z,36.30
2018-06-10T14:01:42.563Z,36.20
2018-06-10T14:04:12.249Z,36.10
2018-06-10T14:06:41.886Z,36.00
2018-06-10T14:09:11.597Z,35.90
2018-06-10T14:11:41.200Z,35.90
2018-06-10T14:14:10.787Z,35.80
2018-06-10T14:16:40.448Z,35.70
2018-06-10T14:19:10.079Z,35.50
2018-06-10T14:21:39.758Z,35.50
2018-06-10T14:24:09.407Z,35.40
2018-06-10T14:26:39.046Z,35.30
2018-06-10T14:29:08.616Z,35.30
2018-06-10T14:31:38.183Z,35.10
2018-06-10T14:34:07.868Z,35.10
2018-06-10T14:36:37.462Z,35.00
2018-06-10T14:39:10.708Z,34.90
2018-06-10T14:41:40.645Z,34.90
2018-06-10T14:44:11.955Z,34.80
2018-06-10T14:46:43.007Z,34.70
2018-06-10T14:49:14.198Z,34.70
2018-06-10T14:51:46.175Z,34.60
2018-06-10T14:54:18.147Z,34.50
2018-06-10T15:01:50.022Z,34.30
2018-06-10T15:04:19.704Z,34.20
2018-06-10T15:06:49.348Z,34.20
2018-06-10T15:09:19.076Z,34.10
2018-06-10T15:11:48.909Z,34.10
2018-06-10T15:14:18.516Z,34.00
2018-06-10T15:16:48.079Z,33.90
2018-06-10T15:21:46.742Z,33.80
2018-06-10T15:24:16.401Z,33.80
2018-06-10T15:26:46.027Z,33.70
2018-06-10T15:29:15.736Z,33.60
2018-06-10T15:31:45.332Z,33.50
2018-06-10T15:34:14.984Z,33.50
2018-06-10T15:36:45.385Z,33.40
2018-06-10T15:39:15.051Z,33.40
2018-06-10T15:44:29.137Z,33.30
2018-06-10T15:46:58.739Z,33.30
2018-06-10T15:49:28.334Z,33.10
2018-06-10T15:54:26.932Z,33.00
2018-06-10T15:59:25.557Z,32.90
2018-06-10T16:01:55.162Z,32.90
2018-06-10T16:04:24.758Z,32.80
2018-06-10T16:06:54.335Z,32.80
2018-06-10T16:09:23.941Z,32.80
2018-06-10T16:11:53.603Z,32.70
2018-06-10T16:14:23.141Z,32.70
2018-06-10T16:16:52.913Z,32.60
2018-06-10T16:19:22.497Z,32.60
2018-06-10T16:24:21.079Z,32.50
2018-06-10T16:26:50.710Z,32.50
2018-06-10T16:29:20.353Z,32.40
2018-06-10T16:31:50.016Z,32.40
2018-06-10T16:36:48.649Z,32.30
2018-06-10T16:39:19.019Z,32.30
2018-06-10T16:41:48.684Z,32.20
2018-06-10T16:44:18.264Z,32.20
2018-06-10T16:49:16.878Z,32.10
2018-06-10T16:51:46.447Z,32.10
2018-06-10T16:54:16.030Z,32.00
2018-06-10T16:56:45.678Z,32.00
2018-06-10T16:59:15.359Z,31.90
2018-06-10T17:01:44.990Z,31.90
2018-06-10T17:04:14.585Z,31.90
2018-06-10T17:06:44.263Z,31.90
2018-06-10T17:09:13.869Z,31.80
2018-06-10T17:11:43.467Z,31.80
2018-06-10T17:14:13.005Z,31.70
2018-06-10T17:16:42.629Z,31.70
2018-06-10T17:19:12.275Z,31.70
2018-06-10T17:21:41.839Z,31.60
2018-06-10T17:24:11.456Z,31.60
2018-06-10T17:26:41.132Z,31.50
2018-06-10T17:29:10.733Z,31.50
2018-06-10T17:31:40.373Z,31.50
2018-06-10T17:34:09.954Z,31.40
2018-06-10T17:36:39.564Z,31.40
2018-06-10T17:39:09.457Z,31.40
2018-06-10T17:41:39.049Z,31.30
2018-06-10T17:44:08.643Z,31.30
2018-06-10T17:46:38.257Z,31.20
2018-06-10T17:49:07.869Z,31.20
2018-06-10T17:51:37.505Z,31.20
2018-06-10T17:54:07.182Z,31.10
2018-06-10T17:56:36.878Z,31.10
2018-06-10T17:59:06.620Z,31.10
